sensor_id;sensor_type;location;lat;lon;timestamp;pressure;altitude;pressure_sealevel;temperature;humidity
68456;BME280;55437;55.046;38.838;2024-02-16T00:00:56;101802.78;;;-6.04;57.64
68456;BME280;55437;55.046;38.838;2024-02-16T00:03:22;101799.22;;;-6.07;57.84
68456;BME280;55437;55.046;38.838;2024-02-16T00:05:48;101797.06;;;-6.14;57.53
68456;BME280;55437;55.046;38.838;2024-02-16T00:08:17;101798.69;;;-6.15;57.78
68456;BME280;55437;55.046;38.838;2024-02-16T00:10:43;101797.75;;;-6.17;57.87
68456;BME280;55437;55.046;38.838;2024-02-16T00:13:10;101797.31;;;-6.23;58.35
68456;BME280;55437;55.046;38.838;2024-02-16T00:15:36;101791.19;;;-6.15;58.14
68456;BME280;55437;55.046;38.838;2024-02-16T00:18:05;101796.19;;;-6.15;58.48
68456;BME280;55437;55.046;38.838;2024-02-16T00:20:30;101793.34;;;-6.08;57.99
68456;BME280;55437;55.046;38.838;2024-02-16T00:22:57;101793.34;;;-6.08;57.98
68456;BME280;55437;55.046;38.838;2024-02-16T00:25:23;101801.59;;;-6.09;57.68
68456;BME280;55437;55.046;38.838;2024-02-16T00:27:49;101787.53;;;-6.20;57.97
68456;BME280;55437;55.046;38.838;2024-02-16T00:30:22;101794.59;;;-6.26;58.48
68456;BME280;55437;55.046;38.838;2024-02-16T00:33:13;101796.94;;;-6.29;59.05
68456;BME280;55437;55.046;38.838;2024-02-16T00:35:38;101796.88;;;-6.18;58.04
68456;BME280;55437;55.046;38.838;2024-02-16T00:38:04;101789.56;;;-6.14;58.42
68456;BME280;55437;55.046;38.838;2024-02-16T00:40:30;101793.53;;;-6.05;58.12
68456;BME280;55437;55.046;38.838;2024-02-16T00:42:55;101785.34;;;-6.02;58.31
68456;BME280;55437;55.046;38.838;2024-02-16T00:45:21;101788.59;;;-5.92;57.61
68456;BME280;55437;55.046;38.838;2024-02-16T00:47:47;101779.78;;;-5.85;57.95
68456;BME280;55437;55.046;38.838;2024-02-16T00:50:14;101779.72;;;-5.73;58.10
68456;BME280;55437;55.046;38.838;2024-02-16T00:52:40;101774.50;;;-5.76;57.98
68456;BME280;55437;55.046;38.838;2024-02-16T00:55:06;101773.75;;;-5.89;58.22
68456;BME280;55437;55.046;38.838;2024-02-16T00:57:32;101773.59;;;-5.92;57.86
68456;BME280;55437;55.046;38.838;2024-02-16T00:59:59;101770.28;;;-5.91;58.33
68456;BME280;55437;55.046;38.838;2024-02-16T01:02:25;101769.69;;;-5.87;58.25
68456;BME280;55437;55.046;38.838;2024-02-16T01:04:51;101764.88;;;-5.84;58.22
68456;BME280;55437;55.046;38.838;2024-02-16T01:07:17;101768.75;;;-5.89;58.27
68456;BME280;55437;55.046;38.838;2024-02-16T01:09:43;101769.25;;;-5.94;58.35
68456;BME280;55437;55.046;38.838;2024-02-16T01:12:08;101764.78;;;-5.85;58.10
68456;BME280;55437;55.046;38.838;2024-02-16T01:14:34;101762.41;;;-5.70;57.84
68456;BME280;55437;55.046;38.838;2024-02-16T01:17:01;101755.47;;;-5.61;57.67
68456;BME280;55437;55.046;38.838;2024-02-16T01:19:27;101747.97;;;-5.61;57.76
68456;BME280;55437;55.046;38.838;2024-02-16T01:21:52;101750.69;;;-5.58;57.60
68456;BME280;55437;55.046;38.838;2024-02-16T01:24:23;101748.19;;;-5.58;58.12
68456;BME280;55437;55.046;38.838;2024-02-16T01:26:49;101750.59;;;-5.47;57.78
68456;BME280;55437;55.046;38.838;2024-02-16T01:29:15;101752.22;;;-5.47;57.59
68456;BME280;55437;55.046;38.838;2024-02-16T01:31:41;101753.19;;;-5.45;57.67
68456;BME280;55437;55.046;38.838;2024-02-16T01:34:06;101752.53;;;-5.56;57.96
68456;BME280;55437;55.046;38.838;2024-02-16T01:36:32;101754.72;;;-5.60;57.61
68456;BME280;55437;55.046;38.838;2024-02-16T01:38:58;101736.63;;;-5.56;57.78
68456;BME280;55437;55.046;38.838;2024-02-16T01:41:24;101739.31;;;-5.53;57.84
68456;BME280;55437;55.046;38.838;2024-02-16T01:43:52;101746.91;;;-5.38;57.53
68456;BME280;55437;55.046;38.838;2024-02-16T01:46:18;101739.50;;;-5.37;57.01
68456;BME280;55437;55.046;38.838;2024-02-16T01:48:44;101733.53;;;-5.39;57.37
68456;BME280;55437;55.046;38.838;2024-02-16T01:51:35;101736.81;;;-5.40;57.08
68456;BME280;55437;55.046;38.838;2024-02-16T01:54:01;101737.41;;;-5.44;57.30
68456;BME280;55437;55.046;38.838;2024-02-16T01:56:28;101736.34;;;-5.48;57.04
68456;BME280;55437;55.046;38.838;2024-02-16T01:58:54;101736.25;;;-5.49;57.24
68456;BME280;55437;55.046;38.838;2024-02-16T02:01:21;101724.78;;;-5.46;57.71
68456;BME280;55437;55.046;38.838;2024-02-16T02:03:47;101724.38;;;-5.52;57.36
68456;BME280;55437;55.046;38.838;2024-02-16T02:06:15;101723.06;;;-5.60;57.15
68456;BME280;55437;55.046;38.838;2024-02-16T02:08:40;101726.03;;;-5.65;57.91
68456;BME280;55437;55.046;38.838;2024-02-16T02:11:06;101720.44;;;-5.61;57.86
68456;BME280;55437;55.046;38.838;2024-02-16T02:13:32;101721.13;;;-5.64;57.43
68456;BME280;55437;55.046;38.838;2024-02-16T02:15:58;101719.13;;;-5.56;57.53
68456;BME280;55437;55.046;38.838;2024-02-16T02:18:25;101719.38;;;-5.65;57.54
68456;BME280;55437;55.046;38.838;2024-02-16T02:20:50;101718.81;;;-5.74;58.11
68456;BME280;55437;55.046;38.838;2024-02-16T02:23:16;101721.22;;;-5.62;57.91
68456;BME280;55437;55.046;38.838;2024-02-16T02:26:01;101732.41;;;-5.57;57.89
68456;BME280;55437;55.046;38.838;2024-02-16T02:28:27;101726.78;;;-5.53;57.33
68456;BME280;55437;55.046;38.838;2024-02-16T02:30:52;101730.56;;;-5.47;57.53
68456;BME280;55437;55.046;38.838;2024-02-16T02:33:19;101730.06;;;-5.41;57.80
68456;BME280;55437;55.046;38.838;2024-02-16T02:35:46;101719.09;;;-5.43;57.46
68456;BME280;55437;55.046;38.838;2024-02-16T02:38:12;101737.00;;;-5.37;57.21
68456;BME280;55437;55.046;38.838;2024-02-16T02:40:38;101730.84;;;-5.42;57.41
68456;BME280;55437;55.046;38.838;2024-02-16T02:43:04;101732.56;;;-5.41;57.36
68456;BME280;55437;55.046;38.838;2024-02-16T02:45:31;101730.81;;;-5.29;57.36
68456;BME280;55437;55.046;38.838;2024-02-16T02:47:57;101740.25;;;-5.25;57.45
68456;BME280;55437;55.046;38.838;2024-02-16T02:50:23;101739.59;;;-5.35;56.82
68456;BME280;55437;55.046;38.838;2024-02-16T02:52:49;101730.84;;;-5.42;57.03
68456;BME280;55437;55.046;38.838;2024-02-16T02:55:15;101741.44;;;-5.46;57.46
68456;BME280;55437;55.046;38.838;2024-02-16T02:57:41;101734.41;;;-5.38;57.19
68456;BME280;55437;55.046;38.838;2024-02-16T03:00:08;101738.44;;;-5.27;56.87
68456;BME280;55437;55.046;38.838;2024-02-16T03:02:42;101738.13;;;-5.19;57.13
68456;BME280;55437;55.046;38.838;2024-02-16T03:05:09;101733.13;;;-5.19;57.05
68456;BME280;55437;55.046;38.838;2024-02-16T03:07:35;101743.84;;;-5.21;56.91
68456;BME280;55437;55.046;38.838;2024-02-16T03:10:02;101739.41;;;-5.25;56.86
68456;BME280;55437;55.046;38.838;2024-02-16T03:12:29;101737.84;;;-5.23;57.10
68456;BME280;55437;55.046;38.838;2024-02-16T03:14:56;101734.09;;;-5.30;56.93
68456;BME280;55437;55.046;38.838;2024-02-16T03:17:21;101747.78;;;-5.25;56.80
68456;BME280;55437;55.046;38.838;2024-02-16T03:19:47;101747.69;;;-5.26;57.17
68456;BME280;55437;55.046;38.838;2024-02-16T03:22:13;101751.44;;;-5.33;56.88
68456;BME280;55437;55.046;38.838;2024-02-16T03:24:38;101751.81;;;-5.27;56.61
68456;BME280;55437;55.046;38.838;2024-02-16T03:27:04;101753.94;;;-5.20;56.76
68456;BME280;55437;55.046;38.838;2024-02-16T03:29:31;101757.22;;;-5.21;56.54
68456;BME280;55437;55.046;38.838;2024-02-16T03:31:56;101755.06;;;-5.15;56.74
68456;BME280;55437;55.046;38.838;2024-02-16T03:34:22;101757.38;;;-5.04;56.62
68456;BME280;55437;55.046;38.838;2024-02-16T03:36:48;101749.09;;;-5.03;56.01
68456;BME280;55437;55.046;38.838;2024-02-16T03:39:14;101749.38;;;-4.99;56.03
68456;BME280;55437;55.046;38.838;2024-02-16T03:41:45;101740.34;;;-5.10;56.27
68456;BME280;55437;55.046;38.838;2024-02-16T03:44:14;101750.06;;;-5.15;56.05
68456;BME280;55437;55.046;38.838;2024-02-16T03:46:42;101746.22;;;-5.10;56.22
68456;BME280;55437;55.046;38.838;2024-02-16T03:49:09;101747.00;;;-5.11;56.39
68456;BME280;55437;55.046;38.838;2024-02-16T03:51:35;101748.53;;;-5.13;56.56
68456;BME280;55437;55.046;38.838;2024-02-16T03:54:02;101746.50;;;-5.18;56.18
68456;BME280;55437;55.046;38.838;2024-02-16T03:56:30;101749.41;;;-5.25;56.72
68456;BME280;55437;55.046;38.838;2024-02-16T03:58:56;101745.38;;;-5.36;57.13
68456;BME280;55437;55.046;38.838;2024-02-16T04:01:21;101744.31;;;-5.40;56.74
68456;BME280;55437;55.046;38.838;2024-02-16T04:03:48;101757.03;;;-5.37;56.70
68456;BME280;55437;55.046;38.838;2024-02-16T04:06:14;101752.22;;;-5.34;56.84
68456;BME280;55437;55.046;38.838;2024-02-16T04:08:40;101756.06;;;-5.39;56.26
68456;BME280;55437;55.046;38.838;2024-02-16T04:11:06;101756.63;;;-5.43;56.90
68456;BME280;55437;55.046;38.838;2024-02-16T04:13:31;101748.94;;;-5.46;56.97
68456;BME280;55437;55.046;38.838;2024-02-16T04:15:58;101754.72;;;-5.34;56.47
68456;BME280;55437;55.046;38.838;2024-02-16T04:18:25;101761.16;;;-5.24;56.18
68456;BME280;55437;55.046;38.838;2024-02-16T04:20:50;101762.31;;;-5.19;56.44
68456;BME280;55437;55.046;38.838;2024-02-16T04:23:16;101762.13;;;-5.22;56.24
68456;BME280;55437;55.046;38.838;2024-02-16T04:25:42;101757.22;;;-5.34;56.25
68456;BME280;55437;55.046;38.838;2024-02-16T04:28:08;101762.50;;;-5.43;56.38
68456;BME280;55437;55.046;38.838;2024-02-16T04:30:34;101759.81;;;-5.46;56.44
68456;BME280;55437;55.046;38.838;2024-02-16T04:33:01;101762.03;;;-5.50;56.33
68456;BME280;55437;55.046;38.838;2024-02-16T04:35:27;101778.69;;;-5.51;56.69
68456;BME280;55437;55.046;38.838;2024-02-16T04:37:53;101765.88;;;-5.42;56.47
68456;BME280;55437;55.046;38.838;2024-02-16T04:40:19;101774.66;;;-5.35;56.22
68456;BME280;55437;55.046;38.838;2024-02-16T04:42:45;101769.84;;;-5.32;56.35
68456;BME280;55437;55.046;38.838;2024-02-16T04:45:11;101769.84;;;-5.32;56.47
68456;BME280;55437;55.046;38.838;2024-02-16T04:47:38;101757.22;;;-5.21;56.08
68456;BME280;55437;55.046;38.838;2024-02-16T04:50:06;101763.56;;;-5.13;56.15
68456;BME280;55437;55.046;38.838;2024-02-16T04:52:37;101768.09;;;-5.20;56.12
68456;BME280;55437;55.046;38.838;2024-02-16T04:55:04;101769.63;;;-5.22;55.95
68456;BME280;55437;55.046;38.838;2024-02-16T04:57:32;101769.13;;;-5.43;56.17
68456;BME280;55437;55.046;38.838;2024-02-16T04:59:58;101761.06;;;-5.52;56.14
68456;BME280;55437;55.046;38.838;2024-02-16T05:02:23;101764.44;;;-5.38;56.09
68456;BME280;55437;55.046;38.838;2024-02-16T05:04:50;101775.41;;;-5.36;56.57
68456;BME280;55437;55.046;38.838;2024-02-16T05:07:16;101784.09;;;-5.45;56.11
68456;BME280;55437;55.046;38.838;2024-02-16T05:09:42;101778.38;;;-5.42;56.30
68456;BME280;55437;55.046;38.838;2024-02-16T05:12:09;101775.31;;;-5.51;56.18
68456;BME280;55437;55.046;38.838;2024-02-16T05:14:35;101782.34;;;-5.46;56.22
68456;BME280;55437;55.046;38.838;2024-02-16T05:17:01;101785.31;;;-5.38;56.39
68456;BME280;55437;55.046;38.838;2024-02-16T05:19:27;101792.16;;;-5.49;55.88
68456;BME280;55437;55.046;38.838;2024-02-16T05:21:53;101783.38;;;-5.55;56.10
68456;BME280;55437;55.046;38.838;2024-02-16T05:24:18;101789.88;;;-5.46;56.14
68456;BME280;55437;55.046;38.838;2024-02-16T05:26:44;101792.75;;;-5.39;56.04
68456;BME280;55437;55.046;38.838;2024-02-16T05:29:11;101797.06;;;-5.50;56.16
68456;BME280;55437;55.046;38.838;2024-02-16T05:31:37;101809.00;;;-5.46;56.35
68456;BME280;55437;55.046;38.838;2024-02-16T05:34:02;101796.50;;;-5.46;56.46
68456;BME280;55437;55.046;38.838;2024-02-16T05:36:28;101805.66;;;-5.47;56.00
68456;BME280;55437;55.046;38.838;2024-02-16T05:39:00;101811.69;;;-5.43;56.09
68456;BME280;55437;55.046;38.838;2024-02-16T05:41:35;101811.31;;;-5.49;56.35
68456;BME280;55437;55.046;38.838;2024-02-16T05:44:02;101810.56;;;-5.48;56.41
68456;BME280;55437;55.046;38.838;2024-02-16T05:46:29;101805.84;;;-5.43;56.03
68456;BME280;55437;55.046;38.838;2024-02-16T05:48:54;101811.91;;;-5.40;56.08
68456;BME280;55437;55.046;38.838;2024-02-16T05:51:20;101810.84;;;-5.43;55.99
68456;BME280;55437;55.046;38.838;2024-02-16T05:53:46;101811.22;;;-5.37;55.93
68456;BME280;55437;55.046;38.838;2024-02-16T05:56:12;101813.06;;;-5.35;56.19
68456;BME280;55437;55.046;38.838;2024-02-16T05:58:38;101812.47;;;-5.31;55.92
68456;BME280;55437;55.046;38.838;2024-02-16T06:01:04;101811.63;;;-5.31;55.90
68456;BME280;55437;55.046;38.838;2024-02-16T06:03:29;101798.22;;;-5.19;56.34
68456;BME280;55437;55.046;38.838;2024-02-16T06:05:56;101797.75;;;-5.13;55.84
68456;BME280;55437;55.046;38.838;2024-02-16T06:08:22;101789.88;;;-5.19;55.99
68456;BME280;55437;55.046;38.838;2024-02-16T06:10:48;101782.53;;;-5.29;56.27
68456;BME280;55437;55.046;38.838;2024-02-16T06:13:19;101787.25;;;-5.34;55.96
68456;BME280;55437;55.046;38.838;2024-02-16T06:15:46;101781.19;;;-5.37;56.04
68456;BME280;55437;55.046;38.838;2024-02-16T06:18:12;101772.81;;;-5.38;56.06
68456;BME280;55437;55.046;38.838;2024-02-16T06:20:39;101770.81;;;-5.57;55.91
68456;BME280;55437;55.046;38.838;2024-02-16T06:23:04;101763.56;;;-5.65;56.61
68456;BME280;55437;55.046;38.838;2024-02-16T06:25:30;101767.22;;;-5.60;56.71
68456;BME280;55437;55.046;38.838;2024-02-16T06:27:56;101765.31;;;-5.51;56.93
68456;BME280;55437;55.046;38.838;2024-02-16T06:30:22;101771.06;;;-5.52;56.15
68456;BME280;55437;55.046;38.838;2024-02-16T06:32:48;101774.25;;;-5.55;56.92
68456;BME280;55437;55.046;38.838;2024-02-16T06:35:14;101765.19;;;-5.53;56.95
68456;BME280;55437;55.046;38.838;2024-02-16T06:37:40;101767.44;;;-5.57;56.72
68456;BME280;55437;55.046;38.838;2024-02-16T06:40:06;101765.88;;;-5.55;56.43
68456;BME280;55437;55.046;38.838;2024-02-16T06:42:36;101754.63;;;-5.62;56.44
68456;BME280;55437;55.046;38.838;2024-02-16T06:45:01;101744.50;;;-5.50;56.28
68456;BME280;55437;55.046;38.838;2024-02-16T06:47:29;101749.03;;;-5.31;56.01
68456;BME280;55437;55.046;38.838;2024-02-16T06:49:54;101755.28;;;-5.38;55.79
68456;BME280;55437;55.046;38.838;2024-02-16T06:52:20;101745.63;;;-5.19;56.11
68456;BME280;55437;55.046;38.838;2024-02-16T06:54:46;101750.91;;;-5.01;55.36
68456;BME280;55437;55.046;38.838;2024-02-16T06:57:11;101743.47;;;-4.86;54.94
68456;BME280;55437;55.046;38.838;2024-02-16T06:59:37;101750.47;;;-4.81;54.97
68456;BME280;55437;55.046;38.838;2024-02-16T07:02:04;101750.81;;;-4.61;54.33
68456;BME280;55437;55.046;38.838;2024-02-16T07:04:29;101757.91;;;-4.82;54.34
68456;BME280;55437;55.046;38.838;2024-02-16T07:06:55;101751.78;;;-5.00;54.55
68456;BME280;55437;55.046;38.838;2024-02-16T07:09:21;101756.78;;;-4.87;54.82
68456;BME280;55437;55.046;38.838;2024-02-16T07:11:47;101762.84;;;-4.84;54.63
68456;BME280;55437;55.046;38.838;2024-02-16T07:14:16;101778.91;;;-4.80;54.40
68456;BME280;55437;55.046;38.838;2024-02-16T07:16:42;101782.44;;;-4.63;54.36
68456;BME280;55437;55.046;38.838;2024-02-16T07:19:08;101797.66;;;-4.60;53.84
68456;BME280;55437;55.046;38.838;2024-02-16T07:21:34;101793.66;;;-4.72;53.90
68456;BME280;55437;55.046;38.838;2024-02-16T07:24:00;101794.44;;;-4.86;54.15
68456;BME280;55437;55.046;38.838;2024-02-16T07:26:26;101803.03;;;-4.95;54.10
68456;BME280;55437;55.046;38.838;2024-02-16T07:28:51;101801.69;;;-5.03;54.15
68456;BME280;55437;55.046;38.838;2024-02-16T07:31:17;101803.41;;;-5.02;54.17
68456;BME280;55437;55.046;38.838;2024-02-16T07:33:43;101803.50;;;-5.01;54.12
68456;BME280;55437;55.046;38.838;2024-02-16T07:36:09;101797.31;;;-4.93;54.21
68456;BME280;55437;55.046;38.838;2024-02-16T07:38:35;101801.00;;;-4.88;53.86
68456;BME280;55437;55.046;38.838;2024-02-16T07:41:04;101795.31;;;-4.85;53.89
68456;BME280;55437;55.046;38.838;2024-02-16T07:43:31;101799.25;;;-4.76;54.03
68456;BME280;55437;55.046;38.838;2024-02-16T07:45:57;101797.84;;;-4.71;53.87
68456;BME280;55437;55.046;38.838;2024-02-16T07:48:23;101801.44;;;-4.67;53.67
68456;BME280;55437;55.046;38.838;2024-02-16T07:50:49;101803.03;;;-4.54;53.58
68456;BME280;55437;55.046;38.838;2024-02-16T07:53:17;101808.72;;;-4.57;53.52
68456;BME280;55437;55.046;38.838;2024-02-16T07:55:43;101817.59;;;-4.49;53.50
68456;BME280;55437;55.046;38.838;2024-02-16T07:58:09;101810.84;;;-4.50;53.21
68456;BME280;55437;55.046;38.838;2024-02-16T08:00:35;101811.50;;;-4.52;53.15
68456;BME280;55437;55.046;38.838;2024-02-16T08:03:01;101804.78;;;-4.53;53.44
68456;BME280;55437;55.046;38.838;2024-02-16T08:05:28;101802.16;;;-4.55;53.55
68456;BME280;55437;55.046;38.838;2024-02-16T08:07:54;101804.97;;;-4.50;53.35
68456;BME280;55437;55.046;38.838;2024-02-16T08:10:21;101802.94;;;-4.56;53.22
68456;BME280;55437;55.046;38.838;2024-02-16T08:12:47;101803.16;;;-4.66;53.81
68456;BME280;55437;55.046;38.838;2024-02-16T08:15:13;101807.09;;;-4.56;53.57
68456;BME280;55437;55.046;38.838;2024-02-16T08:17:40;101800.38;;;-4.43;53.58
68456;BME280;55437;55.046;38.838;2024-02-16T08:20:08;101805.94;;;-4.33;53.72
68456;BME280;55437;55.046;38.838;2024-02-16T08:22:33;101802.94;;;-4.28;53.73
68456;BME280;55437;55.046;38.838;2024-02-16T08:25:00;101811.44;;;-4.26;53.57
68456;BME280;55437;55.046;38.838;2024-02-16T08:27:26;101810.91;;;-4.20;53.51
68456;BME280;55437;55.046;38.838;2024-02-16T08:29:52;101801.69;;;-4.07;53.30
68456;BME280;55437;55.046;38.838;2024-02-16T08:32:17;101805.94;;;-4.06;52.88
68456;BME280;55437;55.046;38.838;2024-02-16T08:34:46;101802.56;;;-3.91;52.83
68456;BME280;55437;55.046;38.838;2024-02-16T08:37:14;101802.94;;;-4.00;52.46
68456;BME280;55437;55.046;38.838;2024-02-16T08:39:40;101801.78;;;-4.05;52.65
68456;BME280;55437;55.046;38.838;2024-02-16T08:42:06;101806.53;;;-3.95;52.46
68456;BME280;55437;55.046;38.838;2024-02-16T08:44:34;101802.50;;;-3.78;52.55
68456;BME280;55437;55.046;38.838;2024-02-16T08:47:00;101802.69;;;-3.75;52.58
68456;BME280;55437;55.046;38.838;2024-02-16T08:49:26;101805.88;;;-3.78;52.12
68456;BME280;55437;55.046;38.838;2024-02-16T08:51:56;101807.44;;;-3.65;52.29
68456;BME280;55437;55.046;38.838;2024-02-16T08:54:22;101813.16;;;-3.68;52.03
68456;BME280;55437;55.046;38.838;2024-02-16T08:56:53;101820.31;;;-3.74;51.85
68456;BME280;55437;55.046;38.838;2024-02-16T08:59:18;101818.75;;;-3.86;51.75
68456;BME280;55437;55.046;38.838;2024-02-16T09:01:44;101821.00;;;-3.91;51.90
68456;BME280;55437;55.046;38.838;2024-02-16T09:04:10;101815.03;;;-3.93;51.92
68456;BME280;55437;55.046;38.838;2024-02-16T09:06:36;101811.41;;;-3.83;51.91
68456;BME280;55437;55.046;38.838;2024-02-16T09:09:03;101814.59;;;-3.86;51.93
68456;BME280;55437;55.046;38.838;2024-02-16T09:11:32;101824.28;;;-3.92;51.75
68456;BME280;55437;55.046;38.838;2024-02-16T09:13:58;101813.72;;;-3.86;52.26
68456;BME280;55437;55.046;38.838;2024-02-16T09:16:26;101802.59;;;-3.77;51.86
68456;BME280;55437;55.046;38.838;2024-02-16T09:18:52;101808.19;;;-3.95;51.47
68456;BME280;55437;55.046;38.838;2024-02-16T09:21:17;101805.38;;;-3.87;52.08
68456;BME280;55437;55.046;38.838;2024-02-16T09:23:43;101808.03;;;-3.84;52.12
68456;BME280;55437;55.046;38.838;2024-02-16T09:26:09;101808.66;;;-3.88;51.66
68456;BME280;55437;55.046;38.838;2024-02-16T09:28:41;101801.09;;;-3.73;51.46
68456;BME280;55437;55.046;38.838;2024-02-16T09:31:07;101798.78;;;-3.70;51.30
68456;BME280;55437;55.046;38.838;2024-02-16T09:33:36;101800.94;;;-3.76;51.28
68456;BME280;55437;55.046;38.838;2024-02-16T09:36:02;101803.00;;;-3.84;51.13
68456;BME280;55437;55.046;38.838;2024-02-16T09:38:27;101797.66;;;-3.75;51.74
68456;BME280;55437;55.046;38.838;2024-02-16T09:40:53;101802.94;;;-3.71;51.56
68456;BME280;55437;55.046;38.838;2024-02-16T09:43:26;101794.81;;;-3.67;51.40
68456;BME280;55437;55.046;38.838;2024-02-16T09:45:56;101792.28;;;-3.67;51.10
68456;BME280;55437;55.046;38.838;2024-02-16T09:48:22;101794.03;;;-3.66;51.21
68456;BME280;55437;55.046;38.838;2024-02-16T09:50:56;101788.75;;;-3.55;51.29
68456;BME280;55437;55.046;38.838;2024-02-16T09:53:41;101789.25;;;-3.61;51.18
68456;BME280;55437;55.046;38.838;2024-02-16T09:56:07;101790.66;;;-3.51;51.44
68456;BME280;55437;55.046;38.838;2024-02-16T09:58:35;101785.72;;;-3.65;51.43
68456;BME280;55437;55.046;38.838;2024-02-16T10:01:01;101794.03;;;-3.66;51.17
68456;BME280;55437;55.046;38.838;2024-02-16T10:03:30;101795.16;;;-3.90;51.13
68456;BME280;55437;55.046;38.838;2024-02-16T10:06:10;101801.09;;;-4.03;51.97
68456;BME280;55437;55.046;38.838;2024-02-16T10:08:54;101804.75;;;-3.83;51.79
68456;BME280;55437;55.046;38.838;2024-02-16T10:11:21;101793.50;;;-3.75;51.57
68456;BME280;55437;55.046;38.838;2024-02-16T10:14:05;101793.06;;;-3.68;51.34
68456;BME280;55437;55.046;38.838;2024-02-16T10:16:31;101793.34;;;-3.63;51.41
68456;BME280;55437;55.046;38.838;2024-02-16T10:19:04;101797.03;;;-3.71;51.33
68456;BME280;55437;55.046;38.838;2024-02-16T10:21:30;101783.81;;;-3.83;51.42
68456;BME280;55437;55.046;38.838;2024-02-16T10:26:22;101793.75;;;-4.00;51.92
68456;BME280;55437;55.046;38.838;2024-02-16T10:28:50;101792.13;;;-3.99;51.65
68456;BME280;55437;55.046;38.838;2024-02-16T10:31:17;101788.03;;;-3.97;51.79
68456;BME280;55437;55.046;38.838;2024-02-16T10:33:43;101794.53;;;-3.86;52.00
68456;BME280;55437;55.046;38.838;2024-02-16T10:36:10;101798.44;;;-3.91;51.71
68456;BME280;55437;55.046;38.838;2024-02-16T10:38:37;101800.16;;;-3.90;51.38
68456;BME280;55437;55.046;38.838;2024-02-16T10:41:04;101801.81;;;-3.90;51.62
68456;BME280;55437;55.046;38.838;2024-02-16T10:43:31;101797.66;;;-3.90;51.59
68456;BME280;55437;55.046;38.838;2024-02-16T10:45:58;101793.31;;;-3.92;51.20
68456;BME280;55437;55.046;38.838;2024-02-16T10:48:24;101794.28;;;-3.90;51.86
68456;BME280;55437;55.046;38.838;2024-02-16T10:50:50;101798.06;;;-3.97;52.06
68456;BME280;55437;55.046;38.838;2024-02-16T10:53:27;101797.53;;;-4.06;52.23
68456;BME280;55437;55.046;38.838;2024-02-16T10:55:57;101795.41;;;-4.00;52.13
68456;BME280;55437;55.046;38.838;2024-02-16T10:58:24;101792.09;;;-3.84;52.22
68456;BME280;55437;55.046;38.838;2024-02-16T11:00:53;101790.91;;;-3.76;52.03
68456;BME280;55437;55.046;38.838;2024-02-16T11:03:24;101780.84;;;-3.62;51.63
68456;BME280;55437;55.046;38.838;2024-02-16T11:05:50;101779.75;;;-3.67;51.62
68456;BME280;55437;55.046;38.838;2024-02-16T11:08:18;101783.63;;;-3.72;51.86
68456;BME280;55437;55.046;38.838;2024-02-16T11:11:02;101782.94;;;-3.69;51.54
68456;BME280;55437;55.046;38.838;2024-02-16T11:13:36;101777.31;;;-3.80;52.35
68456;BME280;55437;55.046;38.838;2024-02-16T11:16:09;101777.41;;;-3.78;52.12
68456;BME280;55437;55.046;38.838;2024-02-16T11:18:39;101775.09;;;-3.75;52.29
68456;BME280;55437;55.046;38.838;2024-02-16T11:21:06;101767.19;;;-3.81;52.50
68456;BME280;55437;55.046;38.838;2024-02-16T11:23:37;101757.84;;;-3.84;52.45
68456;BME280;55437;55.046;38.838;2024-02-16T11:26:04;101756.28;;;-3.82;52.50
68456;BME280;55437;55.046;38.838;2024-02-16T11:28:35;101751.09;;;-3.85;52.37
68456;BME280;55437;55.046;38.838;2024-02-16T11:31:01;101753.50;;;-3.86;52.48
68456;BME280;55437;55.046;38.838;2024-02-16T11:33:28;101748.94;;;-3.79;52.56
68456;BME280;55437;55.046;38.838;2024-02-16T11:35:59;101749.88;;;-3.91;52.66
68456;BME280;55437;55.046;38.838;2024-02-16T11:38:26;101754.72;;;-3.80;52.73
68456;BME280;55437;55.046;38.838;2024-02-16T11:41:03;101749.72;;;-3.94;52.45
68456;BME280;55437;55.046;38.838;2024-02-16T11:43:48;101758.00;;;-4.10;53.00
68456;BME280;55437;55.046;38.838;2024-02-16T11:46:14;101757.94;;;-4.12;52.98
68456;BME280;55437;55.046;38.838;2024-02-16T11:48:43;101751.00;;;-4.16;52.60
68456;BME280;55437;55.046;38.838;2024-02-16T11:51:08;101746.06;;;-4.14;53.36
68456;BME280;55437;55.046;38.838;2024-02-16T11:53:34;101736.28;;;-4.10;52.92
68456;BME280;55437;55.046;38.838;2024-02-16T11:56:00;101747.81;;;-4.13;52.74
68456;BME280;55437;55.046;38.838;2024-02-16T11:58:27;101747.25;;;-4.22;53.43
68456;BME280;55437;55.046;38.838;2024-02-16T12:00:53;101748.66;;;-4.27;53.68
68456;BME280;55437;55.046;38.838;2024-02-16T12:03:20;101743.09;;;-4.22;53.74
68456;BME280;55437;55.046;38.838;2024-02-16T12:05:53;101746.56;;;-4.20;53.52
68456;BME280;55437;55.046;38.838;2024-02-16T12:08:20;101746.81;;;-4.30;53.58
68456;BME280;55437;55.046;38.838;2024-02-16T12:10:49;101745.09;;;-4.31;53.86
68456;BME280;55437;55.046;38.838;2024-02-16T12:13:17;101746.72;;;-4.31;53.79
68456;BME280;55437;55.046;38.838;2024-02-16T12:15:47;101743.34;;;-4.32;53.95
68456;BME280;55437;55.046;38.838;2024-02-16T12:18:26;101747.59;;;-4.31;53.92
68456;BME280;55437;55.046;38.838;2024-02-16T12:21:03;101750.91;;;-4.17;54.00
68456;BME280;55437;55.046;38.838;2024-02-16T12:23:35;101754.56;;;-4.12;53.89
68456;BME280;55437;55.046;38.838;2024-02-16T12:26:03;101754.63;;;-4.25;53.94
68456;BME280;55437;55.046;38.838;2024-02-16T12:28:30;101757.47;;;-4.19;54.03
68456;BME280;55437;55.046;38.838;2024-02-16T12:31:00;101751.09;;;-4.14;54.38
68456;BME280;55437;55.046;38.838;2024-02-16T12:33:25;101754.38;;;-4.15;54.14
68456;BME280;55437;55.046;38.838;2024-02-16T12:35:52;101749.69;;;-4.24;54.37
68456;BME280;55437;55.046;38.838;2024-02-16T12:38:18;101750.16;;;-4.44;54.49
68456;BME280;55437;55.046;38.838;2024-02-16T12:40:46;101754.31;;;-4.45;54.62
68456;BME280;55437;55.046;38.838;2024-02-16T12:43:12;101750.94;;;-4.45;54.45